createdAt,value
2023-12-04T00:01:51.571Z,4.56
2023-12-04T00:04:19.293Z,4.54
2023-12-04T00:06:46.925Z,4.54
2023-12-04T00:09:14.553Z,4.53
2023-12-04T00:11:42.120Z,4.51
2023-12-04T00:14:09.699Z,4.53
2023-12-04T00:16:37.257Z,4.52
2023-12-04T00:19:04.948Z,4.51
2023-12-04T00:21:32.659Z,4.49
2023-12-04T00:24:00.595Z,4.44
2023-12-04T00:26:28.188Z,4.46
2023-12-04T00:28:55.729Z,4.46
2023-12-04T00:31:23.339Z,4.43
2023-12-04T00:33:51.286Z,4.39
2023-12-04T00:36:20.735Z,4.40
2023-12-04T00:38:48.457Z,4.38
2023-12-04T00:41:16.363Z,4.34
2023-12-04T00:43:43.912Z,4.37
2023-12-04T00:46:11.475Z,4.30
2023-12-04T00:48:39.112Z,4.36
2023-12-04T00:51:07.292Z,4.36
2023-12-04T00:53:34.865Z,4.35
2023-12-04T00:56:02.450Z,4.35
2023-12-04T00:58:30.055Z,4.36
2023-12-04T01:00:58.196Z,4.35
2023-12-04T01:03:27.657Z,4.32
2023-12-04T01:05:55.302Z,4.35
2023-12-04T01:08:23.696Z,4.31
2023-12-04T01:10:52.207Z,4.34
2023-12-04T01:13:19.749Z,4.31
2023-12-04T01:15:49.526Z,4.34
2023-12-04T01:18:17.192Z,4.35
2023-12-04T01:20:44.730Z,4.39
2023-12-04T01:23:12.267Z,4.40
2023-12-04T01:25:39.853Z,4.44
2023-12-04T01:28:07.455Z,4.45
2023-12-04T01:30:34.974Z,4.45
2023-12-04T01:33:03.414Z,4.47
2023-12-04T01:35:31.061Z,4.50
2023-12-04T01:37:58.616Z,4.48
2023-12-04T01:40:27.413Z,4.50
2023-12-04T01:42:55.238Z,4.51
2023-12-04T01:45:22.873Z,4.50
2023-12-04T01:47:50.668Z,4.51
2023-12-04T01:50:18.543Z,4.48
2023-12-04T01:52:47.399Z,4.49
2023-12-04T01:55:16.048Z,4.46
2023-12-04T01:57:43.689Z,4.41
2023-12-04T02:00:13.122Z,4.38
2023-12-04T02:02:42.986Z,4.40
2023-12-04T02:05:11.902Z,4.36
2023-12-04T02:07:41.334Z,4.38
2023-12-04T02:10:10.056Z,4.36
2023-12-04T02:12:38.629Z,4.36
2023-12-04T02:15:06.976Z,4.31
2023-12-04T02:17:35.121Z,4.25
2023-12-04T02:20:04.780Z,4.31
2023-12-04T02:22:32.431Z,4.30
2023-12-04T02:25:01.396Z,4.29
2023-12-04T02:27:32.048Z,4.25
2023-12-04T02:30:07.050Z,4.27
2023-12-04T02:32:36.983Z,4.26
2023-12-04T02:35:05.750Z,4.23
2023-12-04T02:37:43.955Z,4.27
2023-12-04T02:40:17.515Z,4.24
2023-12-04T02:42:45.906Z,4.22
2023-12-04T02:45:13.380Z,4.28
2023-12-04T02:47:41.016Z,4.26
2023-12-04T02:50:08.685Z,4.21
2023-12-04T02:52:36.390Z,4.22
2023-12-04T02:55:04.304Z,4.25
2023-12-04T02:57:31.905Z,4.23
2023-12-04T02:59:59.344Z,4.26
2023-12-04T03:02:26.900Z,4.26
2023-12-04T03:04:54.984Z,4.28
2023-12-04T03:07:24.850Z,4.28
2023-12-04T03:09:52.829Z,4.29
2023-12-04T03:12:20.341Z,4.23
2023-12-04T03:14:47.904Z,4.26
2023-12-04T03:17:15.837Z,4.29
2023-12-04T03:19:43.407Z,4.28
2023-12-04T03:22:10.962Z,4.30
2023-12-04T03:24:38.561Z,4.29
2023-12-04T03:27:06.051Z,4.28
2023-12-04T03:29:33.583Z,4.33
2023-12-04T03:32:01.179Z,4.35
2023-12-04T03:34:28.744Z,4.38
2023-12-04T03:36:56.349Z,4.40
2023-12-04T03:39:23.870Z,4.38
2023-12-04T03:41:51.435Z,4.42
2023-12-04T03:44:19.011Z,4.45
2023-12-04T03:46:46.530Z,4.47
2023-12-04T03:49:14.168Z,4.44
2023-12-04T03:51:41.741Z,4.45
2023-12-04T03:54:09.237Z,4.53
2023-12-04T03:56:36.718Z,4.54
2023-12-04T03:59:04.164Z,4.57
2023-12-04T04:01:31.708Z,4.55
2023-12-04T04:03:59.277Z,4.57
2023-12-04T04:06:26.884Z,4.61
2023-12-04T04:08:54.504Z,4.62
2023-12-04T04:11:21.978Z,4.63
2023-12-04T04:13:49.520Z,4.63
2023-12-04T04:16:17.194Z,4.60
2023-12-04T04:18:44.929Z,4.58
2023-12-04T04:21:12.491Z,4.57
2023-12-04T04:23:39.931Z,4.56
2023-12-04T04:26:07.840Z,4.54
2023-12-04T04:28:35.393Z,4.57
2023-12-04T04:31:03.083Z,4.59
2023-12-04T04:33:30.619Z,4.55
2023-12-04T04:35:58.641Z,4.50
2023-12-04T04:38:26.198Z,4.52
2023-12-04T04:40:53.843Z,4.52
2023-12-04T04:43:21.591Z,4.50
2023-12-04T04:45:49.103Z,4.50
2023-12-04T04:48:16.781Z,4.49
2023-12-04T04:50:44.357Z,4.48
2023-12-04T04:53:12.007Z,4.49
2023-12-04T04:55:47.604Z,4.51
2023-12-04T04:58:19.749Z,4.52
2023-12-04T05:00:48.489Z,4.52
2023-12-04T05:03:16.159Z,4.52
2023-12-04T05:05:43.867Z,4.57
2023-12-04T05:08:11.421Z,4.56
2023-12-04T05:10:40.132Z,4.55
2023-12-04T05:13:08.758Z,4.57
2023-12-04T05:15:36.418Z,4.53
2023-12-04T05:18:04.178Z,4.50
2023-12-04T05:20:32.134Z,4.47
2023-12-04T05:22:59.717Z,4.48
2023-12-04T05:25:31.648Z,4.45
2023-12-04T05:28:01.886Z,4.44
2023-12-04T05:30:29.438Z,4.38
2023-12-04T05:32:57.120Z,4.42
2023-12-04T05:35:24.772Z,4.40
2023-12-04T05:37:52.417Z,4.34
2023-12-04T05:40:19.987Z,4.39
2023-12-04T05:42:47.696Z,4.38
2023-12-04T05:45:15.376Z,4.36
2023-12-04T05:47:43.097Z,4.35
2023-12-04T05:50:10.778Z,4.31
2023-12-04T05:52:38.313Z,4.33
2023-12-04T05:55:06.054Z,4.35
2023-12-04T05:57:33.992Z,4.33
2023-12-04T06:00:01.703Z,4.29
2023-12-04T06:02:31.939Z,4.30
2023-12-04T06:04:59.571Z,4.23
2023-12-04T06:07:27.114Z,4.17
2023-12-04T06:09:54.801Z,4.19
2023-12-04T06:12:22.357Z,4.08
2023-12-04T06:14:50.036Z,4.16
2023-12-04T06:17:17.743Z,4.19
2023-12-04T06:19:47.911Z,4.16
2023-12-04T06:22:16.438Z,4.07
2023-12-04T06:24:44.749Z,4.20
2023-12-04T06:27:15.929Z,4.24
2023-12-04T06:29:44.945Z,4.24
2023-12-04T06:32:13.351Z,4.28
2023-12-04T06:34:41.565Z,4.28
2023-12-04T06:37:13.796Z,4.36
2023-12-04T06:39:41.860Z,4.43
2023-12-04T06:42:10.810Z,4.47
2023-12-04T06:44:38.708Z,4.53
2023-12-04T06:47:08.902Z,4.52
2023-12-04T06:49:36.608Z,4.51
2023-12-04T06:52:04.637Z,4.46
2023-12-04T06:54:32.299Z,4.54
2023-12-04T06:56:59.883Z,4.50
2023-12-04T06:59:27.465Z,4.58
2023-12-04T07:01:55.048Z,4.59
2023-12-04T07:04:23.156Z,4.57
2023-12-04T07:06:51.003Z,4.59
2023-12-04T07:09:18.609Z,4.57
2023-12-04T07:11:46.161Z,4.60
2023-12-04T07:14:13.795Z,4.58
2023-12-04T07:16:44.436Z,4.55
2023-12-04T07:19:12.512Z,4.61
2023-12-04T07:21:40.639Z,4.65
2023-12-04T07:24:08.694Z,4.74
2023-12-04T07:26:36.946Z,4.76
2023-12-04T07:29:04.908Z,4.79
2023-12-04T07:31:32.587Z,4.84
2023-12-04T07:34:02.899Z,4.88
2023-12-04T07:36:30.667Z,4.90
2023-12-04T07:38:58.189Z,4.87
2023-12-04T07:41:25.753Z,4.96
2023-12-04T07:43:53.605Z,5.02
2023-12-04T07:46:21.283Z,5.06
2023-12-04T07:48:49.227Z,5.11
2023-12-04T07:51:17.273Z,5.14
2023-12-04T07:53:44.878Z,5.16
2023-12-04T07:56:13.214Z,5.22
2023-12-04T07:58:40.878Z,5.23
2023-12-04T08:01:08.734Z,5.27
2023-12-04T08:03:36.398Z,5.28
2023-12-04T08:06:04.829Z,5.33
2023-12-04T08:08:33.181Z,5.36
2023-12-04T08:11:00.777Z,5.34
2023-12-04T08:13:28.442Z,5.33
2023-12-04T08:15:56.050Z,5.34
2023-12-04T08:18:23.635Z,5.36
2023-12-04T08:20:51.308Z,5.37
2023-12-04T08:23:18.921Z,5.42
2023-12-04T08:25:46.853Z,5.46
2023-12-04T08:28:14.437Z,5.50
2023-12-04T08:30:42.047Z,5.48
2023-12-04T08:33:09.927Z,5.61
2023-12-04T08:35:37.611Z,5.67
2023-12-04T08:38:05.346Z,5.64
2023-12-04T08:40:33.135Z,5.67
2023-12-04T08:43:00.692Z,5.74
2023-12-04T08:45:28.294Z,5.76
2023-12-04T08:47:56.600Z,5.82
2023-12-04T08:50:26.310Z,5.86
2023-12-04T08:52:54.093Z,5.88
2023-12-04T08:55:21.785Z,5.97
2023-12-04T08:57:49.524Z,6.02
2023-12-04T09:00:17.511Z,6.06
2023-12-04T09:02:49.469Z,6.07
2023-12-04T09:05:22.259Z,6.07
2023-12-04T09:08:29.018Z,6.03
2023-12-04T09:10:46.034Z,6.10
2023-12-04T09:13:24.895Z,6.15
2023-12-04T09:15:52.967Z,6.19
2023-12-04T09:18:20.941Z,6.20
2023-12-04T09:20:48.751Z,6.26
2023-12-04T09:23:19.279Z,6.31
2023-12-04T09:25:46.837Z,6.35
2023-12-04T09:28:14.606Z,6.37
2023-12-04T09:30:42.265Z,6.41
2023-12-04T09:33:10.437Z,6.43
2023-12-04T09:35:37.983Z,6.50
2023-12-04T09:38:05.619Z,6.53
2023-12-04T09:40:33.675Z,6.53
2023-12-04T09:43:01.242Z,6.50
2023-12-04T09:45:29.969Z,6.59
2023-12-04T09:47:57.661Z,6.62
2023-12-04T09:50:25.544Z,6.61
2023-12-04T09:52:54.254Z,6.69
2023-12-04T09:55:21.909Z,6.70
2023-12-04T09:57:50.249Z,6.70
2023-12-04T10:00:18.834Z,6.66
2023-12-04T10:02:47.010Z,6.71
2023-12-04T10:05:14.770Z,6.67
2023-12-04T10:07:42.362Z,6.65
2023-12-04T10:10:10.147Z,6.68
2023-12-04T10:12:38.408Z,6.68
2023-12-04T10:15:13.456Z,6.72
2023-12-04T10:17:42.285Z,6.77
2023-12-04T10:20:13.994Z,6.81
2023-12-04T10:22:59.806Z,6.84
2023-12-04T10:25:30.016Z,6.86
2023-12-04T10:28:18.492Z,6.94
2023-12-04T10:30:46.720Z,6.97
2023-12-04T10:33:15.384Z,6.96
2023-12-04T10:35:44.585Z,6.91
2023-12-04T10:38:15.294Z,6.98
2023-12-04T10:40:42.908Z,6.97
2023-12-04T10:43:12.021Z,6.93
2023-12-04T10:45:41.182Z,6.88
2023-12-04T10:48:10.375Z,6.86
2023-12-04T10:50:43.320Z,6.86
2023-12-04T10:53:13.543Z,6.84
2023-12-04T10:55:42.216Z,6.80
2023-12-04T10:58:15.848Z,6.83
2023-12-04T11:00:52.072Z,6.80
2023-12-04T11:03:27.024Z,6.80
2023-12-04T11:06:00.162Z,6.72
2023-12-04T11:08:30.841Z,6.72
2023-12-04T11:11:10.399Z,6.70
2023-12-04T11:13:42.898Z,6.67
2023-12-04T11:16:34.288Z,6.66
2023-12-04T11:19:07.045Z,6.65
2023-12-04T11:21:35.143Z,6.70
2023-12-04T11:24:03.994Z,6.69
2023-12-04T11:26:32.089Z,6.65
2023-12-04T11:29:00.318Z,6.69
2023-12-04T11:31:28.027Z,6.68
2023-12-04T11:34:02.281Z,6.74
2023-12-04T11:36:30.159Z,6.79
2023-12-04T11:38:57.692Z,6.81
2023-12-04T11:41:27.722Z,6.79
2023-12-04T11:43:59.520Z,6.80
2023-12-04T11:46:29.005Z,6.78
2023-12-04T11:48:58.514Z,6.78
2023-12-04T11:51:53.415Z,6.82
2023-12-04T11:54:25.839Z,6.82
2023-12-04T11:57:22.270Z,6.80
2023-12-04T11:59:50.445Z,6.77
2023-12-04T12:02:18.416Z,6.80
2023-12-04T12:04:49.073Z,6.85
2023-12-04T12:07:17.046Z,6.85
2023-12-04T12:09:44.749Z,6.85
2023-12-04T12:12:14.181Z,6.89
2023-12-04T12:14:41.745Z,6.98
2023-12-04T12:17:09.754Z,7.02
2023-12-04T12:19:38.992Z,7.11
2023-12-04T12:22:06.613Z,7.11
2023-12-04T12:24:34.260Z,7.12
2023-12-04T12:27:01.855Z,7.14
2023-12-04T12:29:29.473Z,7.15
2023-12-04T12:31:57.068Z,7.13
2023-12-04T12:34:25.304Z,7.08
2023-12-04T12:36:52.873Z,7.15
2023-12-04T12:39:21.195Z,7.15
2023-12-04T12:41:51.947Z,7.13
2023-12-04T12:44:19.764Z,7.24
2023-12-04T12:46:50.723Z,7.25
2023-12-04T12:49:29.540Z,7.38
2023-12-04T12:52:07.333Z,7.41
2023-12-04T12:54:37.459Z,7.43
2023-12-04T12:57:06.283Z,7.48
2023-12-04T12:59:34.623Z,7.51
2023-12-04T13:02:02.671Z,7.51
2023-12-04T13:04:37.148Z,7.52
2023-12-04T13:07:07.067Z,7.49
2023-12-04T13:09:36.718Z,7.50
2023-12-04T13:12:05.978Z,7.49
2023-12-04T13:14:36.450Z,7.49
2023-12-04T13:17:05.176Z,7.49
2023-12-04T13:19:33.202Z,7.52
2023-12-04T13:22:00.957Z,7.54
2023-12-04T13:24:28.937Z,7.56
2023-12-04T13:26:56.582Z,7.58
2023-12-04T13:29:24.357Z,7.59
2023-12-04T13:31:52.202Z,7.54
2023-12-04T13:34:20.107Z,7.57
2023-12-04T13:36:47.712Z,7.57
2023-12-04T13:39:18.490Z,7.57
2023-12-04T13:42:07.680Z,7.59
2023-12-04T13:44:35.331Z,7.60
2023-12-04T13:47:03.059Z,7.63
2023-12-04T13:49:30.617Z,7.66
2023-12-04T13:51:59.188Z,7.67
2023-12-04T13:54:44.721Z,7.66
2023-12-04T13:57:19.876Z,7.64
2023-12-04T13:59:47.599Z,7.65
2023-12-04T14:02:16.247Z,7.61
2023-12-04T14:04:44.424Z,7.60
2023-12-04T14:07:14.453Z,7.62
2023-12-04T14:09:42.743Z,7.54
2023-12-04T14:12:10.432Z,7.47
2023-12-04T14:14:38.561Z,7.42
2023-12-04T14:17:08.391Z,7.38
2023-12-04T14:19:36.298Z,7.34
2023-12-04T14:22:04.183Z,7.40
2023-12-04T14:24:32.384Z,7.40
2023-12-04T14:26:59.991Z,7.42
2023-12-04T14:29:27.587Z,7.41
2023-12-04T14:31:55.204Z,7.44
2023-12-04T14:34:23.576Z,7.51
2023-12-04T14:36:51.295Z,7.55
2023-12-04T14:39:19.929Z,7.58
2023-12-04T14:41:47.690Z,7.61
2023-12-04T14:44:15.258Z,7.60
2023-12-04T14:46:43.140Z,7.57
2023-12-04T14:49:10.928Z,7.65
2023-12-04T14:51:38.543Z,7.63
2023-12-04T14:54:16.320Z,7.68
2023-12-04T14:57:07.349Z,7.65
2023-12-04T14:59:50.247Z,7.58
2023-12-04T15:02:37.235Z,7.61
2023-12-04T15:05:05.252Z,7.59
2023-12-04T15:07:36.722Z,7.58
2023-12-04T15:10:33.958Z,7.59
2023-12-04T15:13:33.679Z,7.57
2023-12-04T15:16:20.911Z,7.58
2023-12-04T15:19:14.524Z,7.61
2023-12-04T15:21:42.220Z,7.65
2023-12-04T15:24:10.357Z,7.71
2023-12-04T15:26:38.983Z,7.72
2023-12-04T15:29:06.601Z,7.75
2023-12-04T15:31:34.166Z,7.83
2023-12-04T15:34:02.901Z,7.86
2023-12-04T15:36:30.783Z,7.86
2023-12-04T15:38:58.376Z,7.88
2023-12-04T15:41:26.238Z,7.95
2023-12-04T15:43:55.205Z,8.01
2023-12-04T15:46:24.043Z,8.06
2023-12-04T15:48:51.896Z,8.07
2023-12-04T15:51:20.323Z,8.11
2023-12-04T15:53:49.300Z,8.12
2023-12-04T15:56:16.894Z,8.15
2023-12-04T15:58:44.558Z,8.16
2023-12-04T16:01:12.110Z,8.15
2023-12-04T16:03:39.875Z,8.14
2023-12-04T16:06:08.095Z,8.09
2023-12-04T16:08:35.902Z,8.09
2023-12-04T16:11:04.038Z,8.14
2023-12-04T16:13:31.650Z,8.09
2023-12-04T16:15:59.312Z,8.13
2023-12-04T16:18:27.081Z,8.14
2023-12-04T16:20:54.671Z,8.14
2023-12-04T16:23:23.923Z,8.12
2023-12-04T16:25:51.724Z,8.07
2023-12-04T16:28:19.510Z,8.04
2023-12-04T16:30:47.077Z,8.04
2023-12-04T16:33:14.840Z,8.07
2023-12-04T16:35:42.817Z,8.06
2023-12-04T16:38:10.389Z,8.06
2023-12-04T16:40:37.912Z,8.10
2023-12-04T16:43:05.808Z,8.12
2023-12-04T16:45:33.482Z,8.12
2023-12-04T16:48:01.187Z,8.17
2023-12-04T16:50:30.342Z,8.17
2023-12-04T16:52:59.247Z,8.22
2023-12-04T16:55:26.850Z,8.24
2023-12-04T16:57:59.852Z,8.20
2023-12-04T17:00:27.503Z,8.29
2023-12-04T17:02:55.100Z,8.27
2023-12-04T17:05:22.897Z,8.24
2023-12-04T17:07:50.555Z,8.24
2023-12-04T17:10:19.843Z,8.25
2023-12-04T17:12:48.356Z,8.25
2023-12-04T17:15:16.267Z,8.23
2023-12-04T17:17:44.657Z,8.21
2023-12-04T17:20:13.059Z,8.24
2023-12-04T17:22:40.998Z,8.21
2023-12-04T17:25:09.012Z,8.23
2023-12-04T17:27:37.433Z,8.25
2023-12-04T17:30:06.974Z,8.29
2023-12-04T17:32:34.623Z,8.28
2023-12-04T17:35:02.405Z,8.32
2023-12-04T17:37:30.031Z,8.34
2023-12-04T17:39:57.652Z,8.37
2023-12-04T17:42:26.689Z,8.32
2023-12-04T17:44:54.285Z,8.40
2023-12-04T17:47:22.925Z,8.35
2023-12-04T17:49:50.504Z,8.32
2023-12-04T17:52:18.051Z,8.37
2023-12-04T17:54:45.685Z,8.43
2023-12-04T17:57:13.826Z,8.47
2023-12-04T17:59:41.410Z,8.53
2023-12-04T18:02:10.466Z,8.57
2023-12-04T18:04:39.076Z,8.56
2023-12-04T18:07:06.818Z,8.61
2023-12-04T18:09:35.301Z,8.59
2023-12-04T18:12:03.012Z,8.63
2023-12-04T18:14:30.541Z,8.64
2023-12-04T18:16:58.118Z,8.67
2023-12-04T18:19:26.150Z,8.62
2023-12-04T18:21:54.160Z,8.62
2023-12-04T18:24:21.786Z,8.66
2023-12-04T18:26:49.683Z,8.69
2023-12-04T18:29:17.439Z,8.68
2023-12-04T18:31:45.227Z,8.70
2023-12-04T18:34:13.190Z,8.74
2023-12-04T18:36:46.717Z,8.73
2023-12-04T18:39:15.840Z,8.76
2023-12-04T18:41:43.815Z,8.76
2023-12-04T18:44:11.687Z,8.75
2023-12-04T18:46:40.746Z,8.77
2023-12-04T18:49:10.807Z,8.82
2023-12-04T18:51:38.810Z,8.86
2023-12-04T18:54:07.168Z,8.90
2023-12-04T18:56:34.863Z,8.89
2023-12-04T18:59:04.839Z,8.94
2023-12-04T19:01:35.913Z,8.96
2023-12-04T19:04:03.799Z,8.95
2023-12-04T19:06:31.573Z,8.96
2023-12-04T19:08:59.189Z,8.91
2023-12-04T19:11:26.751Z,8.91
2023-12-04T19:13:54.635Z,8.90
2023-12-04T19:16:22.737Z,8.93
2023-12-04T19:18:50.708Z,8.90
2023-12-04T19:21:19.256Z,8.84
2023-12-04T19:23:46.843Z,8.88
2023-12-04T19:26:14.415Z,8.88
2023-12-04T19:28:44.998Z,8.89
2023-12-04T19:31:12.553Z,8.90
2023-12-04T19:33:40.356Z,8.85
2023-12-04T19:36:08.855Z,8.86
2023-12-04T19:38:38.090Z,8.78
2023-12-04T19:41:06.722Z,8.77
2023-12-04T19:43:35.122Z,8.78
2023-12-04T19:46:05.878Z,8.76
2023-12-04T19:48:33.617Z,8.74
2023-12-04T19:51:04.730Z,8.77
2023-12-04T19:53:32.328Z,8.78
2023-12-04T19:55:59.943Z,8.85
2023-12-04T19:58:28.052Z,8.86
2023-12-04T20:00:55.803Z,8.84
2023-12-04T20:03:23.900Z,8.89
2023-12-04T20:05:51.574Z,8.89
2023-12-04T20:08:19.161Z,8.83
2023-12-04T20:10:46.868Z,8.79
2023-12-04T20:13:15.080Z,8.78
2023-12-04T20:15:42.742Z,8.81
2023-12-04T20:18:10.634Z,8.79
2023-12-04T20:20:38.317Z,8.77
2023-12-04T20:23:05.849Z,8.75
2023-12-04T20:25:33.808Z,8.71
2023-12-04T20:28:01.869Z,8.73
2023-12-04T20:30:30.936Z,8.71
2023-12-04T20:32:58.537Z,8.76
2023-12-04T20:35:26.155Z,8.79
2023-12-04T20:37:53.802Z,8.82
2023-12-04T20:40:22.375Z,8.81
2023-12-04T20:42:50.122Z,8.83
2023-12-04T20:45:17.956Z,8.84
2023-12-04T20:47:45.817Z,8.80
2023-12-04T20:50:13.600Z,8.81
2023-12-04T20:52:41.163Z,8.81
2023-12-04T20:55:10.044Z,8.77
2023-12-04T20:57:37.606Z,8.78
2023-12-04T21:00:08.073Z,8.79
2023-12-04T21:02:35.852Z,8.77
2023-12-04T21:05:03.785Z,8.83
2023-12-04T21:07:31.837Z,8.78
2023-12-04T21:09:59.733Z,8.85
2023-12-04T21:12:28.096Z,8.83
2023-12-04T21:14:55.780Z,8.89
2023-12-04T21:17:23.313Z,8.91
2023-12-04T21:19:50.897Z,8.92
2023-12-04T21:22:18.663Z,8.91
2023-12-04T21:24:47.187Z,8.89
2023-12-04T21:27:15.003Z,8.88
2023-12-04T21:29:42.719Z,8.82
2023-12-04T21:32:11.230Z,8.83
2023-12-04T21:34:38.925Z,8.82
2023-12-04T21:37:06.616Z,8.84
2023-12-04T21:39:34.234Z,8.83
2023-12-04T21:42:01.821Z,8.85
2023-12-04T21:44:29.512Z,8.86
2023-12-04T21:46:57.102Z,8.87
2023-12-04T21:49:24.765Z,8.84
2023-12-04T21:51:52.501Z,8.87
2023-12-04T21:54:20.076Z,8.87
2023-12-04T21:56:48.395Z,8.86
2023-12-04T21:59:34.444Z,8.83
2023-12-04T22:02:02.540Z,8.75
2023-12-04T22:04:30.346Z,8.81
2023-12-04T22:06:58.093Z,8.81
2023-12-04T22:09:26.010Z,8.82
2023-12-04T22:11:53.729Z,8.80
2023-12-04T22:14:22.243Z,8.79
2023-12-04T22:16:49.846Z,8.75
2023-12-04T22:19:17.604Z,8.79
2023-12-04T22:21:46.872Z,8.71
2023-12-04T22:24:14.584Z,8.76
2023-12-04T22:26:42.225Z,8.75
2023-12-04T22:29:09.818Z,8.82
2023-12-04T22:31:37.840Z,8.81
2023-12-04T22:34:05.476Z,8.79
2023-12-04T22:36:33.115Z,8.77
2023-12-04T22:39:00.684Z,8.80
2023-12-04T22:41:28.319Z,8.76
2023-12-04T22:43:56.783Z,8.76
2023-12-04T22:46:24.320Z,8.77
2023-12-04T22:48:52.858Z,8.74
2023-12-04T22:51:21.068Z,8.74
2023-12-04T22:53:48.725Z,8.77
2023-12-04T22:56:16.291Z,8.80
2023-12-04T22:58:43.852Z,8.86
2023-12-04T23:01:12.528Z,8.89
2023-12-04T23:03:40.140Z,8.90
2023-12-04T23:06:07.875Z,8.97
2023-12-04T23:08:36.987Z,9.00
2023-12-04T23:11:06.045Z,9.02
2023-12-04T23:13:33.659Z,9.02
2023-12-04T23:16:02.403Z,9.00
2023-12-04T23:18:30.131Z,9.06
2023-12-04T23:20:57.880Z,9.08
2023-12-04T23:23:25.472Z,9.10
2023-12-04T23:25:53.039Z,9.13
2023-12-04T23:28:20.597Z,9.08
2023-12-04T23:30:48.208Z,9.16
2023-12-04T23:33:15.993Z,9.17
2023-12-04T23:35:43.698Z,9.16
2023-12-04T23:38:11.631Z,9.16
2023-12-04T23:40:39.325Z,9.16
2023-12-04T23:43:07.120Z,9.12
2023-12-04T23:45:42.349Z,9.15
2023-12-04T23:48:17.232Z,9.08
2023-12-04T23:50:44.901Z,9.11
2023-12-04T23:53:12.538Z,9.12
2023-12-04T23:55:40.580Z,9.14
2023-12-04T23:58:08.170Z,9.17
